sensor_id;sensor_type;location;lat;lon;timestamp;temperature;humidity
5304;DHT22;2674;49.722;10.892;2023-09-19T00:01:34;14.90;99.90
5304;DHT22;2674;49.722;10.892;2023-09-19T00:04:01;14.90;99.90
5304;DHT22;2674;49.722;10.892;2023-09-19T00:06:30;14.90;99.90
5304;DHT22;2674;49.722;10.892;2023-09-19T00:08:57;14.90;99.90
5304;DHT22;2674;49.722;10.892;2023-09-19T00:11:26;14.90;99.90
5304;DHT22;2674;49.722;10.892;2023-09-19T00:13:52;14.90;99.90
5304;DHT22;2674;49.722;10.892;2023-09-19T00:16:18;14.90;99.90
5304;DHT22;2674;49.722;10.892;2023-09-19T00:18:45;14.80;99.90
5304;DHT22;2674;49.722;10.892;2023-09-19T00:21:11;14.80;99.90
5304;DHT22;2674;49.722;10.892;2023-09-19T00:23:37;14.80;99.90
5304;DHT22;2674;49.722;10.892;2023-09-19T00:26:03;14.70;99.90
5304;DHT22;2674;49.722;10.892;2023-09-19T00:28:30;14.70;99.90
5304;DHT22;2674;49.722;10.892;2023-09-19T00:30:57;14.70;99.90
5304;DHT22;2674;49.722;10.892;2023-09-19T00:33:27;14.70;99.90
5304;DHT22;2674;49.722;10.892;2023-09-19T00:35:55;14.70;99.90
5304;DHT22;2674;49.722;10.892;2023-09-19T00:38:22;14.70;99.90
5304;DHT22;2674;49.722;10.892;2023-09-19T00:40:52;14.80;99.90
5304;DHT22;2674;49.722;10.892;2023-09-19T00:43:19;14.70;99.90
5304;DHT22;2674;49.722;10.892;2023-09-19T00:45:48;14.70;99.90
5304;DHT22;2674;49.722;10.892;2023-09-19T00:48:15;14.70;99.90
5304;DHT22;2674;49.722;10.892;2023-09-19T00:50:44;14.70;99.90
5304;DHT22;2674;49.722;10.892;2023-09-19T00:53:14;14.70;99.90
5304;DHT22;2674;49.722;10.892;2023-09-19T00:55:41;14.70;99.90
5304;DHT22;2674;49.722;10.892;2023-09-19T00:58:10;14.70;99.90
5304;DHT22;2674;49.722;10.892;2023-09-19T01:00:36;14.70;99.90
5304;DHT22;2674;49.722;10.892;2023-09-19T01:03:02;14.70;99.90
5304;DHT22;2674;49.722;10.892;2023-09-19T01:05:28;14.70;99.90
5304;DHT22;2674;49.722;10.892;2023-09-19T01:07:55;14.60;99.90
5304;DHT22;2674;49.722;10.892;2023-09-19T01:10:21;14.60;99.90
5304;DHT22;2674;49.722;10.892;2023-09-19T01:15:38;14.60;99.90
5304;DHT22;2674;49.722;10.892;2023-09-19T01:21:29;14.50;99.90
5304;DHT22;2674;49.722;10.892;2023-09-19T01:29:46;14.40;99.90
5304;DHT22;2674;49.722;10.892;2023-09-19T01:32:21;14.40;99.90
5304;DHT22;2674;49.722;10.892;2023-09-19T01:34:49;14.40;99.90
5304;DHT22;2674;49.722;10.892;2023-09-19T01:37:20;14.40;99.90
5304;DHT22;2674;49.722;10.892;2023-09-19T01:39:51;14.40;99.90
5304;DHT22;2674;49.722;10.892;2023-09-19T01:47:23;14.40;99.90
5304;DHT22;2674;49.722;10.892;2023-09-19T01:50:13;14.50;99.90
5304;DHT22;2674;49.722;10.892;2023-09-19T01:53:14;14.50;99.90
5304;DHT22;2674;49.722;10.892;2023-09-19T01:55:46;14.60;99.90
5304;DHT22;2674;49.722;10.892;2023-09-19T02:00:49;14.60;99.90
5304;DHT22;2674;49.722;10.892;2023-09-19T02:03:17;14.70;99.90
5304;DHT22;2674;49.722;10.892;2023-09-19T02:05:49;14.70;99.90
5304;DHT22;2674;49.722;10.892;2023-09-19T02:08:20;14.70;99.90
5304;DHT22;2674;49.722;10.892;2023-09-19T02:10:47;14.70;99.90
5304;DHT22;2674;49.722;10.892;2023-09-19T02:13:21;14.70;99.90
5304;DHT22;2674;49.722;10.892;2023-09-19T02:15:47;14.70;99.90
5304;DHT22;2674;49.722;10.892;2023-09-19T02:18:13;14.70;99.90
5304;DHT22;2674;49.722;10.892;2023-09-19T02:20:42;14.70;99.90
5304;DHT22;2674;49.722;10.892;2023-09-19T02:23:10;14.70;99.90
5304;DHT22;2674;49.722;10.892;2023-09-19T02:25:36;14.80;99.90
5304;DHT22;2674;49.722;10.892;2023-09-19T02:28:03;14.70;99.90
5304;DHT22;2674;49.722;10.892;2023-09-19T02:30:29;14.70;99.90
5304;DHT22;2674;49.722;10.892;2023-09-19T02:32:56;14.60;99.90
5304;DHT22;2674;49.722;10.892;2023-09-19T02:35:22;14.60;99.90
5304;DHT22;2674;49.722;10.892;2023-09-19T02:37:48;14.60;99.90
5304;DHT22;2674;49.722;10.892;2023-09-19T02:40:14;14.60;99.90
5304;DHT22;2674;49.722;10.892;2023-09-19T02:42:54;14.60;99.90
5304;DHT22;2674;49.722;10.892;2023-09-19T02:45:20;14.50;99.90
5304;DHT22;2674;49.722;10.892;2023-09-19T02:47:47;14.50;99.90
5304;DHT22;2674;49.722;10.892;2023-09-19T02:50:14;14.40;99.90
5304;DHT22;2674;49.722;10.892;2023-09-19T02:52:42;14.40;99.90
5304;DHT22;2674;49.722;10.892;2023-09-19T02:55:11;14.40;99.90
5304;DHT22;2674;49.722;10.892;2023-09-19T02:57:38;14.30;99.90
5304;DHT22;2674;49.722;10.892;2023-09-19T03:00:09;14.30;99.90
5304;DHT22;2674;49.722;10.892;2023-09-19T03:02:38;14.40;99.90
5304;DHT22;2674;49.722;10.892;2023-09-19T03:05:07;14.30;99.90
5304;DHT22;2674;49.722;10.892;2023-09-19T03:07:33;14.30;99.90
5304;DHT22;2674;49.722;10.892;2023-09-19T03:10:02;14.30;99.90
5304;DHT22;2674;49.722;10.892;2023-09-19T03:12:29;14.30;99.90
5304;DHT22;2674;49.722;10.892;2023-09-19T03:14:54;14.30;99.90
5304;DHT22;2674;49.722;10.892;2023-09-19T03:17:21;14.30;99.90
5304;DHT22;2674;49.722;10.892;2023-09-19T03:19:46;14.30;99.90
5304;DHT22;2674;49.722;10.892;2023-09-19T03:22:14;14.30;99.90
5304;DHT22;2674;49.722;10.892;2023-09-19T03:24:40;14.40;99.90
5304;DHT22;2674;49.722;10.892;2023-09-19T03:27:09;14.40;99.90
5304;DHT22;2674;49.722;10.892;2023-09-19T03:29:35;14.40;99.90
5304;DHT22;2674;49.722;10.892;2023-09-19T03:32:01;14.40;99.90
5304;DHT22;2674;49.722;10.892;2023-09-19T03:34:27;14.40;99.90
5304;DHT22;2674;49.722;10.892;2023-09-19T03:36:53;14.40;99.90
5304;DHT22;2674;49.722;10.892;2023-09-19T03:39:19;14.40;99.90
5304;DHT22;2674;49.722;10.892;2023-09-19T03:41:45;14.40;99.90
5304;DHT22;2674;49.722;10.892;2023-09-19T03:44:10;14.40;99.90
5304;DHT22;2674;49.722;10.892;2023-09-19T03:46:36;14.40;99.90
5304;DHT22;2674;49.722;10.892;2023-09-19T03:49:03;14.40;99.90
5304;DHT22;2674;49.722;10.892;2023-09-19T03:51:28;14.50;99.90
5304;DHT22;2674;49.722;10.892;2023-09-19T03:53:55;14.50;99.90
5304;DHT22;2674;49.722;10.892;2023-09-19T03:56:21;14.50;99.90
5304;DHT22;2674;49.722;10.892;2023-09-19T03:58:47;14.50;99.90
5304;DHT22;2674;49.722;10.892;2023-09-19T04:01:13;14.60;99.90
5304;DHT22;2674;49.722;10.892;2023-09-19T04:03:39;14.60;99.90
5304;DHT22;2674;49.722;10.892;2023-09-19T04:06:15;14.60;99.90
5304;DHT22;2674;49.722;10.892;2023-09-19T04:08:41;14.70;99.90
5304;DHT22;2674;49.722;10.892;2023-09-19T04:11:07;14.70;99.90
5304;DHT22;2674;49.722;10.892;2023-09-19T04:13:33;14.70;99.90
5304;DHT22;2674;49.722;10.892;2023-09-19T04:15:59;14.70;99.90
5304;DHT22;2674;49.722;10.892;2023-09-19T04:18:25;14.80;99.90
5304;DHT22;2674;49.722;10.892;2023-09-19T04:20:52;14.80;99.90
5304;DHT22;2674;49.722;10.892;2023-09-19T04:23:17;14.80;99.90
5304;DHT22;2674;49.722;10.892;2023-09-19T04:25:45;14.90;99.90
5304;DHT22;2674;49.722;10.892;2023-09-19T04:28:11;15.00;99.90
5304;DHT22;2674;49.722;10.892;2023-09-19T04:30:38;15.10;99.90
5304;DHT22;2674;49.722;10.892;2023-09-19T04:33:06;15.20;99.90
5304;DHT22;2674;49.722;10.892;2023-09-19T04:35:33;15.20;99.90
5304;DHT22;2674;49.722;10.892;2023-09-19T04:37:58;15.20;99.90
5304;DHT22;2674;49.722;10.892;2023-09-19T04:40:24;15.30;99.90
5304;DHT22;2674;49.722;10.892;2023-09-19T04:42:58;15.30;99.90
5304;DHT22;2674;49.722;10.892;2023-09-19T04:45:28;15.40;99.90
5304;DHT22;2674;49.722;10.892;2023-09-19T04:47:54;15.40;99.90
5304;DHT22;2674;49.722;10.892;2023-09-19T04:50:20;15.50;99.90
5304;DHT22;2674;49.722;10.892;2023-09-19T04:52:52;15.50;99.90
5304;DHT22;2674;49.722;10.892;2023-09-19T04:55:19;15.50;99.90
5304;DHT22;2674;49.722;10.892;2023-09-19T04:57:50;15.50;99.90
5304;DHT22;2674;49.722;10.892;2023-09-19T05:00:18;15.60;99.90
5304;DHT22;2674;49.722;10.892;2023-09-19T05:02:44;15.60;99.90
5304;DHT22;2674;49.722;10.892;2023-09-19T05:05:11;15.60;99.90
5304;DHT22;2674;49.722;10.892;2023-09-19T05:07:39;15.60;99.90
5304;DHT22;2674;49.722;10.892;2023-09-19T05:10:05;15.60;99.90
5304;DHT22;2674;49.722;10.892;2023-09-19T05:12:33;15.60;99.90
5304;DHT22;2674;49.722;10.892;2023-09-19T05:14:59;15.60;99.90
5304;DHT22;2674;49.722;10.892;2023-09-19T05:17:26;15.50;99.90
5304;DHT22;2674;49.722;10.892;2023-09-19T05:19:52;15.50;99.90
5304;DHT22;2674;49.722;10.892;2023-09-19T05:22:18;15.50;99.90
5304;DHT22;2674;49.722;10.892;2023-09-19T05:24:44;15.50;99.90
5304;DHT22;2674;49.722;10.892;2023-09-19T05:27:14;15.50;99.90
5304;DHT22;2674;49.722;10.892;2023-09-19T05:29:45;15.50;99.90
5304;DHT22;2674;49.722;10.892;2023-09-19T05:32:11;15.50;99.90
5304;DHT22;2674;49.722;10.892;2023-09-19T05:34:38;15.50;99.90
5304;DHT22;2674;49.722;10.892;2023-09-19T05:37:04;15.50;99.90
5304;DHT22;2674;49.722;10.892;2023-09-19T05:39:34;15.50;99.90
5304;DHT22;2674;49.722;10.892;2023-09-19T05:42:00;15.50;99.90
5304;DHT22;2674;49.722;10.892;2023-09-19T05:44:26;15.50;99.90
5304;DHT22;2674;49.722;10.892;2023-09-19T05:46:54;15.50;99.90
5304;DHT22;2674;49.722;10.892;2023-09-19T05:49:22;15.50;99.90
5304;DHT22;2674;49.722;10.892;2023-09-19T05:51:50;15.50;99.90
5304;DHT22;2674;49.722;10.892;2023-09-19T05:54:19;15.50;99.90
5304;DHT22;2674;49.722;10.892;2023-09-19T05:56:48;15.50;99.90
5304;DHT22;2674;49.722;10.892;2023-09-19T05:59:18;15.50;99.90
5304;DHT22;2674;49.722;10.892;2023-09-19T06:01:44;15.40;99.90
5304;DHT22;2674;49.722;10.892;2023-09-19T06:04:10;15.50;99.90
5304;DHT22;2674;49.722;10.892;2023-09-19T06:06:36;15.50;99.90
5304;DHT22;2674;49.722;10.892;2023-09-19T06:09:06;15.50;99.90
5304;DHT22;2674;49.722;10.892;2023-09-19T06:11:36;15.50;99.90
5304;DHT22;2674;49.722;10.892;2023-09-19T06:14:02;15.60;99.90
5304;DHT22;2674;49.722;10.892;2023-09-19T06:16:29;15.60;99.90
5304;DHT22;2674;49.722;10.892;2023-09-19T06:18:55;15.70;99.90
5304;DHT22;2674;49.722;10.892;2023-09-19T06:21:22;15.70;99.90
5304;DHT22;2674;49.722;10.892;2023-09-19T06:23:49;15.80;99.90
5304;DHT22;2674;49.722;10.892;2023-09-19T06:26:15;15.90;99.90
5304;DHT22;2674;49.722;10.892;2023-09-19T06:28:40;15.90;99.90
5304;DHT22;2674;49.722;10.892;2023-09-19T06:31:08;15.90;99.90
5304;DHT22;2674;49.722;10.892;2023-09-19T06:33:36;16.00;99.90
5304;DHT22;2674;49.722;10.892;2023-09-19T06:36:05;16.10;99.90
5304;DHT22;2674;49.722;10.892;2023-09-19T06:38:31;16.20;99.90
5304;DHT22;2674;49.722;10.892;2023-09-19T06:41:00;16.30;99.90
5304;DHT22;2674;49.722;10.892;2023-09-19T06:43:27;16.30;99.90
5304;DHT22;2674;49.722;10.892;2023-09-19T06:45:54;16.40;99.90
5304;DHT22;2674;49.722;10.892;2023-09-19T06:48:20;16.40;99.90
5304;DHT22;2674;49.722;10.892;2023-09-19T06:50:46;16.50;99.90
5304;DHT22;2674;49.722;10.892;2023-09-19T06:53:14;16.70;99.90
5304;DHT22;2674;49.722;10.892;2023-09-19T06:55:40;16.80;99.90
5304;DHT22;2674;49.722;10.892;2023-09-19T06:58:06;16.80;99.90
5304;DHT22;2674;49.722;10.892;2023-09-19T07:00:31;16.80;99.90
5304;DHT22;2674;49.722;10.892;2023-09-19T07:03:03;16.80;99.90
5304;DHT22;2674;49.722;10.892;2023-09-19T07:05:34;16.90;99.90
5304;DHT22;2674;49.722;10.892;2023-09-19T07:08:03;16.90;99.90
5304;DHT22;2674;49.722;10.892;2023-09-19T07:10:30;17.00;99.90
5304;DHT22;2674;49.722;10.892;2023-09-19T07:13:06;17.00;99.90
5304;DHT22;2674;49.722;10.892;2023-09-19T07:15:35;17.10;99.90
5304;DHT22;2674;49.722;10.892;2023-09-19T07:18:27;17.10;99.90
5304;DHT22;2674;49.722;10.892;2023-09-19T07:20:57;17.10;99.90
5304;DHT22;2674;49.722;10.892;2023-09-19T07:23:26;17.10;99.90
5304;DHT22;2674;49.722;10.892;2023-09-19T07:25:56;17.10;99.90
5304;DHT22;2674;49.722;10.892;2023-09-19T07:28:22;17.10;99.90
5304;DHT22;2674;49.722;10.892;2023-09-19T07:30:48;17.20;99.90
5304;DHT22;2674;49.722;10.892;2023-09-19T07:33:14;17.20;99.90
5304;DHT22;2674;49.722;10.892;2023-09-19T07:35:40;17.20;99.90
5304;DHT22;2674;49.722;10.892;2023-09-19T07:38:06;17.10;99.90
5304;DHT22;2674;49.722;10.892;2023-09-19T07:40:33;17.10;99.90
5304;DHT22;2674;49.722;10.892;2023-09-19T07:42:59;17.20;99.90
5304;DHT22;2674;49.722;10.892;2023-09-19T07:45:28;17.30;99.90
5304;DHT22;2674;49.722;10.892;2023-09-19T07:47:55;17.30;99.90
5304;DHT22;2674;49.722;10.892;2023-09-19T07:50:21;17.40;78.30
5304;DHT22;2674;49.722;10.892;2023-09-19T07:52:49;17.40;74.70
5304;DHT22;2674;49.722;10.892;2023-09-19T07:55:18;17.40;24.90
5304;DHT22;2674;49.722;10.892;2023-09-19T07:57:45;17.40;33.00
5304;DHT22;2674;49.722;10.892;2023-09-19T08:00:13;17.40;26.50
5304;DHT22;2674;49.722;10.892;2023-09-19T08:02:40;17.40;39.10
5304;DHT22;2674;49.722;10.892;2023-09-19T08:05:08;17.50;18.30
5304;DHT22;2674;49.722;10.892;2023-09-19T08:07:51;17.50;1.00
5304;DHT22;2674;49.722;10.892;2023-09-19T08:10:19;17.60;1.00
5304;DHT22;2674;49.722;10.892;2023-09-19T08:12:47;17.70;1.00
5304;DHT22;2674;49.722;10.892;2023-09-19T08:15:21;17.80;1.00
5304;DHT22;2674;49.722;10.892;2023-09-19T08:17:48;18.00;1.00
5304;DHT22;2674;49.722;10.892;2023-09-19T08:20:14;18.10;1.00
5304;DHT22;2674;49.722;10.892;2023-09-19T08:22:53;18.20;1.00
5304;DHT22;2674;49.722;10.892;2023-09-19T08:25:22;18.20;99.90
5304;DHT22;2674;49.722;10.892;2023-09-19T08:27:49;18.20;1.00
5304;DHT22;2674;49.722;10.892;2023-09-19T08:30:19;18.20;99.90
5304;DHT22;2674;49.722;10.892;2023-09-19T08:33:01;18.10;99.90
5304;DHT22;2674;49.722;10.892;2023-09-19T08:35:28;18.10;1.00
5304;DHT22;2674;49.722;10.892;2023-09-19T08:37:54;18.10;99.90
5304;DHT22;2674;49.722;10.892;2023-09-19T08:40:21;18.10;99.90
5304;DHT22;2674;49.722;10.892;2023-09-19T08:42:51;18.20;99.90
5304;DHT22;2674;49.722;10.892;2023-09-19T08:45:19;18.20;99.90
5304;DHT22;2674;49.722;10.892;2023-09-19T08:51:02;18.20;99.90
5304;DHT22;2674;49.722;10.892;2023-09-19T08:53:52;18.10;1.00
5304;DHT22;2674;49.722;10.892;2023-09-19T08:56:20;18.10;1.00
5304;DHT22;2674;49.722;10.892;2023-09-19T08:58:53;18.20;99.90
5304;DHT22;2674;49.722;10.892;2023-09-19T09:01:21;18.20;1.00
5304;DHT22;2674;49.722;10.892;2023-09-19T09:03:51;18.30;99.90
5304;DHT22;2674;49.722;10.892;2023-09-19T09:06:20;18.40;1.00
5304;DHT22;2674;49.722;10.892;2023-09-19T09:08:46;18.50;99.90
5304;DHT22;2674;49.722;10.892;2023-09-19T09:11:13;18.50;99.90
5304;DHT22;2674;49.722;10.892;2023-09-19T09:13:40;18.60;99.90
5304;DHT22;2674;49.722;10.892;2023-09-19T09:16:07;18.60;99.90
5304;DHT22;2674;49.722;10.892;2023-09-19T09:18:34;18.70;99.90
5304;DHT22;2674;49.722;10.892;2023-09-19T09:21:00;18.70;1.00
5304;DHT22;2674;49.722;10.892;2023-09-19T09:23:27;18.80;1.00
5304;DHT22;2674;49.722;10.892;2023-09-19T09:25:56;18.90;99.90
5304;DHT22;2674;49.722;10.892;2023-09-19T09:28:24;19.00;99.90
5304;DHT22;2674;49.722;10.892;2023-09-19T09:30:50;19.00;99.90
5304;DHT22;2674;49.722;10.892;2023-09-19T09:33:17;19.00;99.90
5304;DHT22;2674;49.722;10.892;2023-09-19T09:35:54;19.00;99.90
5304;DHT22;2674;49.722;10.892;2023-09-19T09:38:27;19.00;99.90
5304;DHT22;2674;49.722;10.892;2023-09-19T09:40:57;18.90;96.50
5304;DHT22;2674;49.722;10.892;2023-09-19T09:43:36;18.80;99.90
5304;DHT22;2674;49.722;10.892;2023-09-19T09:46:11;18.90;99.90
5304;DHT22;2674;49.722;10.892;2023-09-19T09:49:07;18.90;99.90
5304;DHT22;2674;49.722;10.892;2023-09-19T09:51:51;18.90;99.90
5304;DHT22;2674;49.722;10.892;2023-09-19T09:54:28;18.80;99.90
5304;DHT22;2674;49.722;10.892;2023-09-19T09:57:02;18.90;99.90
5304;DHT22;2674;49.722;10.892;2023-09-19T09:59:49;19.10;99.90
5304;DHT22;2674;49.722;10.892;2023-09-19T10:02:17;19.20;99.90
5304;DHT22;2674;49.722;10.892;2023-09-19T10:04:56;19.20;99.90
5304;DHT22;2674;49.722;10.892;2023-09-19T10:07:32;19.30;99.90
5304;DHT22;2674;49.722;10.892;2023-09-19T10:10:05;19.40;55.30
5304;DHT22;2674;49.722;10.892;2023-09-19T10:12:44;19.40;1.00
5304;DHT22;2674;49.722;10.892;2023-09-19T10:15:12;19.50;1.00
5304;DHT22;2674;49.722;10.892;2023-09-19T10:17:42;19.60;77.70
5304;DHT22;2674;49.722;10.892;2023-09-19T10:20:18;19.70;15.10
5304;DHT22;2674;49.722;10.892;2023-09-19T10:22:56;19.70;9.80
5304;DHT22;2674;49.722;10.892;2023-09-19T10:25:27;19.70;91.10
5304;DHT22;2674;49.722;10.892;2023-09-19T10:28:02;19.80;1.00
5304;DHT22;2674;49.722;10.892;2023-09-19T10:30:46;19.80;1.00
5304;DHT22;2674;49.722;10.892;2023-09-19T10:33:23;19.70;1.00
5304;DHT22;2674;49.722;10.892;2023-09-19T10:35:52;19.90;1.00
5304;DHT22;2674;49.722;10.892;2023-09-19T10:38:26;19.90;1.00
5304;DHT22;2674;49.722;10.892;2023-09-19T10:40:55;19.90;1.00
5304;DHT22;2674;49.722;10.892;2023-09-19T10:43:27;19.90;1.00
5304;DHT22;2674;49.722;10.892;2023-09-19T10:45:57;19.90;1.00
5304;DHT22;2674;49.722;10.892;2023-09-19T10:48:26;19.90;1.00
5304;DHT22;2674;49.722;10.892;2023-09-19T10:56:49;20.30;1.00
5304;DHT22;2674;49.722;10.892;2023-09-19T10:59:21;20.50;1.00
5304;DHT22;2674;49.722;10.892;2023-09-19T11:01:55;20.50;1.00
5304;DHT22;2674;49.722;10.892;2023-09-19T11:04:32;20.70;1.00
5304;DHT22;2674;49.722;10.892;2023-09-19T11:07:07;20.80;1.00
5304;DHT22;2674;49.722;10.892;2023-09-19T11:15:07;21.00;1.00
5304;DHT22;2674;49.722;10.892;2023-09-19T11:17:39;21.20;1.00
5304;DHT22;2674;49.722;10.892;2023-09-19T11:30:48;21.10;1.00
5304;DHT22;2674;49.722;10.892;2023-09-19T11:46:55;20.70;1.00
5304;DHT22;2674;49.722;10.892;2023-09-19T11:49:32;20.80;1.00
5304;DHT22;2674;49.722;10.892;2023-09-19T11:52:00;20.90;1.00
5304;DHT22;2674;49.722;10.892;2023-09-19T11:54:35;21.00;1.00
5304;DHT22;2674;49.722;10.892;2023-09-19T11:57:03;21.20;1.00
5304;DHT22;2674;49.722;10.892;2023-09-19T11:59:30;21.30;1.00
5304;DHT22;2674;49.722;10.892;2023-09-19T12:02:06;21.40;1.00
5304;DHT22;2674;49.722;10.892;2023-09-19T12:04:40;21.40;1.00
5304;DHT22;2674;49.722;10.892;2023-09-19T12:07:17;21.60;1.00
5304;DHT22;2674;49.722;10.892;2023-09-19T12:09:45;21.60;1.00
5304;DHT22;2674;49.722;10.892;2023-09-19T12:12:25;21.50;1.00
5304;DHT22;2674;49.722;10.892;2023-09-19T12:14:53;21.60;1.00
5304;DHT22;2674;49.722;10.892;2023-09-19T12:17:20;21.50;1.00
5304;DHT22;2674;49.722;10.892;2023-09-19T12:19:51;21.60;1.00
5304;DHT22;2674;49.722;10.892;2023-09-19T12:22:17;21.60;1.00
5304;DHT22;2674;49.722;10.892;2023-09-19T12:24:46;21.50;1.00
5304;DHT22;2674;49.722;10.892;2023-09-19T12:27:12;21.40;99.90
5304;DHT22;2674;49.722;10.892;2023-09-19T12:29:47;21.30;99.90
5304;DHT22;2674;49.722;10.892;2023-09-19T12:32:36;21.30;1.00
5304;DHT22;2674;49.722;10.892;2023-09-19T12:35:06;21.40;99.90
5304;DHT22;2674;49.722;10.892;2023-09-19T12:37:45;21.40;99.90
5304;DHT22;2674;49.722;10.892;2023-09-19T12:40:21;21.40;99.90
5304;DHT22;2674;49.722;10.892;2023-09-19T12:42:54;21.50;99.90
5304;DHT22;2674;49.722;10.892;2023-09-19T12:45:35;21.50;99.90
5304;DHT22;2674;49.722;10.892;2023-09-19T12:51:11;21.50;99.90
5304;DHT22;2674;49.722;10.892;2023-09-19T12:53:43;21.40;99.90
5304;DHT22;2674;49.722;10.892;2023-09-19T12:56:16;21.40;99.90
5304;DHT22;2674;49.722;10.892;2023-09-19T13:01:25;21.30;99.90
5304;DHT22;2674;49.722;10.892;2023-09-19T13:04:21;21.40;99.90
5304;DHT22;2674;49.722;10.892;2023-09-19T13:06:55;21.40;99.90
5304;DHT22;2674;49.722;10.892;2023-09-19T13:09:27;21.40;99.90
5304;DHT22;2674;49.722;10.892;2023-09-19T13:12:05;21.30;99.90
5304;DHT22;2674;49.722;10.892;2023-09-19T13:14:33;21.20;99.90
5304;DHT22;2674;49.722;10.892;2023-09-19T13:17:09;21.10;99.90
5304;DHT22;2674;49.722;10.892;2023-09-19T13:19:50;21.10;99.90
5304;DHT22;2674;49.722;10.892;2023-09-19T13:22:45;21.10;99.90
5304;DHT22;2674;49.722;10.892;2023-09-19T13:25:21;21.20;99.90
5304;DHT22;2674;49.722;10.892;2023-09-19T13:27:52;21.30;99.90
5304;DHT22;2674;49.722;10.892;2023-09-19T13:30:20;21.50;99.90
5304;DHT22;2674;49.722;10.892;2023-09-19T13:32:47;21.60;99.90
5304;DHT22;2674;49.722;10.892;2023-09-19T13:35:14;21.70;99.90
5304;DHT22;2674;49.722;10.892;2023-09-19T13:37:41;21.70;99.90
5304;DHT22;2674;49.722;10.892;2023-09-19T13:40:13;21.70;99.90
5304;DHT22;2674;49.722;10.892;2023-09-19T13:42:39;21.70;99.90
5304;DHT22;2674;49.722;10.892;2023-09-19T13:45:06;21.90;99.90
5304;DHT22;2674;49.722;10.892;2023-09-19T13:47:33;21.80;99.90
5304;DHT22;2674;49.722;10.892;2023-09-19T13:49:59;21.80;99.90
5304;DHT22;2674;49.722;10.892;2023-09-19T13:52:26;21.90;99.90
5304;DHT22;2674;49.722;10.892;2023-09-19T13:54:54;22.00;99.90
5304;DHT22;2674;49.722;10.892;2023-09-19T13:57:26;22.10;99.90
5304;DHT22;2674;49.722;10.892;2023-09-19T13:59:52;22.20;99.90
5304;DHT22;2674;49.722;10.892;2023-09-19T14:02:22;22.30;99.90
5304;DHT22;2674;49.722;10.892;2023-09-19T14:04:51;22.40;99.90
5304;DHT22;2674;49.722;10.892;2023-09-19T14:07:17;22.50;99.90
5304;DHT22;2674;49.722;10.892;2023-09-19T14:09:46;22.30;99.90
5304;DHT22;2674;49.722;10.892;2023-09-19T14:12:13;22.30;99.90
5304;DHT22;2674;49.722;10.892;2023-09-19T14:14:39;22.30;99.90
5304;DHT22;2674;49.722;10.892;2023-09-19T14:17:05;22.30;99.90
5304;DHT22;2674;49.722;10.892;2023-09-19T14:19:33;22.30;99.90
5304;DHT22;2674;49.722;10.892;2023-09-19T14:21:58;22.20;99.90
5304;DHT22;2674;49.722;10.892;2023-09-19T14:24:25;22.00;99.90
5304;DHT22;2674;49.722;10.892;2023-09-19T14:26:51;22.10;99.90
5304;DHT22;2674;49.722;10.892;2023-09-19T14:29:17;22.10;99.90
5304;DHT22;2674;49.722;10.892;2023-09-19T14:31:43;22.10;99.90
5304;DHT22;2674;49.722;10.892;2023-09-19T14:34:09;22.20;99.90
5304;DHT22;2674;49.722;10.892;2023-09-19T14:36:36;22.10;99.90
5304;DHT22;2674;49.722;10.892;2023-09-19T14:39:02;22.00;99.90
5304;DHT22;2674;49.722;10.892;2023-09-19T14:41:28;21.90;99.90
5304;DHT22;2674;49.722;10.892;2023-09-19T14:43:53;21.90;99.90
5304;DHT22;2674;49.722;10.892;2023-09-19T14:46:21;21.80;99.90
5304;DHT22;2674;49.722;10.892;2023-09-19T14:48:47;21.70;99.90
5304;DHT22;2674;49.722;10.892;2023-09-19T14:51:13;21.70;99.90
5304;DHT22;2674;49.722;10.892;2023-09-19T14:53:40;21.70;99.90
5304;DHT22;2674;49.722;10.892;2023-09-19T14:56:10;21.80;99.90
5304;DHT22;2674;49.722;10.892;2023-09-19T14:58:37;21.80;99.90
5304;DHT22;2674;49.722;10.892;2023-09-19T15:01:08;21.70;99.90
5304;DHT22;2674;49.722;10.892;2023-09-19T15:03:36;21.70;99.90
5304;DHT22;2674;49.722;10.892;2023-09-19T15:06:03;21.60;99.90
5304;DHT22;2674;49.722;10.892;2023-09-19T15:08:33;21.60;99.90
5304;DHT22;2674;49.722;10.892;2023-09-19T15:11:08;21.70;99.90
5304;DHT22;2674;49.722;10.892;2023-09-19T15:13:35;21.70;99.90
5304;DHT22;2674;49.722;10.892;2023-09-19T15:16:02;21.60;99.90
5304;DHT22;2674;49.722;10.892;2023-09-19T15:18:29;21.60;99.90
5304;DHT22;2674;49.722;10.892;2023-09-19T15:20:56;21.50;99.90
5304;DHT22;2674;49.722;10.892;2023-09-19T15:23:22;21.40;99.90
5304;DHT22;2674;49.722;10.892;2023-09-19T15:25:49;21.40;99.90
5304;DHT22;2674;49.722;10.892;2023-09-19T15:28:15;21.30;99.90
5304;DHT22;2674;49.722;10.892;2023-09-19T15:30:41;21.40;99.90
5304;DHT22;2674;49.722;10.892;2023-09-19T15:33:07;21.40;99.90
5304;DHT22;2674;49.722;10.892;2023-09-19T15:35:33;21.40;99.90
5304;DHT22;2674;49.722;10.892;2023-09-19T15:37:59;21.50;99.90
5304;DHT22;2674;49.722;10.892;2023-09-19T15:40:26;21.40;99.90
5304;DHT22;2674;49.722;10.892;2023-09-19T15:42:55;21.50;99.90
5304;DHT22;2674;49.722;10.892;2023-09-19T15:45:26;21.40;99.90
5304;DHT22;2674;49.722;10.892;2023-09-19T15:47:52;21.50;99.90
5304;DHT22;2674;49.722;10.892;2023-09-19T15:50:18;21.50;99.90
5304;DHT22;2674;49.722;10.892;2023-09-19T15:52:44;21.40;99.90
5304;DHT22;2674;49.722;10.892;2023-09-19T15:55:10;21.40;99.90
5304;DHT22;2674;49.722;10.892;2023-09-19T15:57:37;21.40;99.90
5304;DHT22;2674;49.722;10.892;2023-09-19T16:00:03;21.40;99.90
5304;DHT22;2674;49.722;10.892;2023-09-19T16:02:36;21.30;99.90
5304;DHT22;2674;49.722;10.892;2023-09-19T16:05:02;21.20;99.90
5304;DHT22;2674;49.722;10.892;2023-09-19T16:07:31;21.20;99.90
5304;DHT22;2674;49.722;10.892;2023-09-19T16:09:57;21.20;99.90
5304;DHT22;2674;49.722;10.892;2023-09-19T16:12:25;21.20;99.90
5304;DHT22;2674;49.722;10.892;2023-09-19T16:14:51;21.10;99.90
5304;DHT22;2674;49.722;10.892;2023-09-19T16:17:17;21.10;99.90
5304;DHT22;2674;49.722;10.892;2023-09-19T16:19:46;21.10;99.90
5304;DHT22;2674;49.722;10.892;2023-09-19T16:22:12;21.00;99.90
5304;DHT22;2674;49.722;10.892;2023-09-19T16:24:39;20.90;99.90
5304;DHT22;2674;49.722;10.892;2023-09-19T16:27:05;20.90;99.90
5304;DHT22;2674;49.722;10.892;2023-09-19T16:29:31;20.80;99.90
5304;DHT22;2674;49.722;10.892;2023-09-19T16:31:57;20.80;99.90
5304;DHT22;2674;49.722;10.892;2023-09-19T16:34:23;20.80;99.90
5304;DHT22;2674;49.722;10.892;2023-09-19T16:36:49;20.90;99.90
5304;DHT22;2674;49.722;10.892;2023-09-19T16:39:14;20.80;99.90
5304;DHT22;2674;49.722;10.892;2023-09-19T16:41:40;20.80;99.90
5304;DHT22;2674;49.722;10.892;2023-09-19T16:44:07;20.70;99.90
5304;DHT22;2674;49.722;10.892;2023-09-19T16:46:34;20.60;99.90
5304;DHT22;2674;49.722;10.892;2023-09-19T16:49:02;20.60;99.90
5304;DHT22;2674;49.722;10.892;2023-09-19T16:51:30;20.50;99.90
5304;DHT22;2674;49.722;10.892;2023-09-19T16:53:56;20.40;99.90
5304;DHT22;2674;49.722;10.892;2023-09-19T16:56:22;20.30;99.90
5304;DHT22;2674;49.722;10.892;2023-09-19T16:58:49;20.20;99.90
5304;DHT22;2674;49.722;10.892;2023-09-19T17:01:16;20.10;99.90
5304;DHT22;2674;49.722;10.892;2023-09-19T17:03:44;19.90;99.90